sensor_id;sensor_type;location;lat;lon;timestamp;P1;durP1;ratioP1;P2;durP2;ratioP2
7935;SDS011;4013;49.744;8.118;2024-01-16T05:32:33;7.43;;;4.60;;
7935;SDS011;4013;49.744;8.118;2024-01-16T05:35:00;6.27;;;4.10;;
7935;SDS011;4013;49.744;8.118;2024-01-16T05:37:27;5.57;;;3.90;;
7935;SDS011;4013;49.744;8.118;2024-01-16T05:39:54;6.60;;;4.43;;
7935;SDS011;4013;49.744;8.118;2024-01-16T05:42:22;7.53;;;4.20;;
7935;SDS011;4013;49.744;8.118;2024-01-16T05:44:51;7.33;;;3.90;;
7935;SDS011;4013;49.744;8.118;2024-01-16T05:47:18;7.93;;;4.30;;
7935;SDS011;4013;49.744;8.118;2024-01-16T05:49:47;10.33;;;6.97;;
7935;SDS011;4013;49.744;8.118;2024-01-16T05:52:13;22.47;;;11.87;;
7935;SDS011;4013;49.744;8.118;2024-01-16T05:54:40;10.23;;;5.40;;
7935;SDS011;4013;49.744;8.118;2024-01-16T05:57:07;9.77;;;5.67;;
7935;SDS011;4013;49.744;8.118;2024-01-16T05:59:34;8.40;;;5.30;;
7935;SDS011;4013;49.744;8.118;2024-01-16T06:02:01;9.67;;;5.27;;
7935;SDS011;4013;49.744;8.118;2024-01-16T06:04:28;7.77;;;4.47;;
7935;SDS011;4013;49.744;8.118;2024-01-16T06:06:56;5.80;;;3.80;;
7935;SDS011;4013;49.744;8.118;2024-01-16T06:09:23;4.80;;;3.83;;
7935;SDS011;4013;49.744;8.118;2024-01-16T06:11:49;6.60;;;3.57;;
7935;SDS011;4013;49.744;8.118;2024-01-16T06:14:16;4.53;;;4.13;;
7935;SDS011;4013;49.744;8.118;2024-01-16T06:16:46;8.00;;;4.73;;
7935;SDS011;4013;49.744;8.118;2024-01-16T06:19:14;7.30;;;4.13;;
7935;SDS011;4013;49.744;8.118;2024-01-16T06:21:41;9.10;;;5.63;;
7935;SDS011;4013;49.744;8.118;2024-01-16T06:24:09;6.33;;;4.93;;
7935;SDS011;4013;49.744;8.118;2024-01-16T06:26:38;8.50;;;5.33;;
7935;SDS011;4013;49.744;8.118;2024-01-16T06:29:05;7.20;;;4.70;;
7935;SDS011;4013;49.744;8.118;2024-01-16T06:31:32;9.90;;;4.80;;
7935;SDS011;4013;49.744;8.118;2024-01-16T06:33:59;7.83;;;5.13;;
7935;SDS011;4013;49.744;8.118;2024-01-16T06:36:26;8.33;;;4.73;;
7935;SDS011;4013;49.744;8.118;2024-01-16T06:38:53;8.60;;;4.93;;
7935;SDS011;4013;49.744;8.118;2024-01-16T06:41:22;10.17;;;5.07;;
7935;SDS011;4013;49.744;8.118;2024-01-16T06:43:48;12.30;;;5.27;;
7935;SDS011;4013;49.744;8.118;2024-01-16T06:46:15;13.47;;;4.87;;
7935;SDS011;4013;49.744;8.118;2024-01-16T06:48:42;9.13;;;5.10;;
7935;SDS011;4013;49.744;8.118;2024-01-16T06:51:09;9.77;;;4.67;;
7935;SDS011;4013;49.744;8.118;2024-01-16T06:53:38;8.30;;;4.90;;
7935;SDS011;4013;49.744;8.118;2024-01-16T06:56:05;6.83;;;4.70;;
7935;SDS011;4013;49.744;8.118;2024-01-16T06:58:34;7.60;;;4.43;;
7935;SDS011;4013;49.744;8.118;2024-01-16T07:01:01;7.50;;;4.80;;
7935;SDS011;4013;49.744;8.118;2024-01-16T07:03:29;7.60;;;4.33;;
7935;SDS011;4013;49.744;8.118;2024-01-16T07:05:56;7.63;;;4.70;;
7935;SDS011;4013;49.744;8.118;2024-01-16T07:08:23;6.70;;;4.87;;
7935;SDS011;4013;49.744;8.118;2024-01-16T07:10:50;11.53;;;4.80;;
7935;SDS011;4013;49.744;8.118;2024-01-16T07:13:16;7.30;;;5.03;;
7935;SDS011;4013;49.744;8.118;2024-01-16T07:15:45;9.43;;;5.20;;
7935;SDS011;4013;49.744;8.118;2024-01-16T07:18:12;7.10;;;5.23;;
7935;SDS011;4013;49.744;8.118;2024-01-16T07:20:39;5.87;;;4.73;;
7935;SDS011;4013;49.744;8.118;2024-01-16T07:23:05;6.13;;;4.83;;
7935;SDS011;4013;49.744;8.118;2024-01-16T07:25:32;9.67;;;5.43;;
7935;SDS011;4013;49.744;8.118;2024-01-16T07:27:59;11.17;;;5.60;;
7935;SDS011;4013;49.744;8.118;2024-01-16T07:30:26;8.90;;;5.80;;
7935;SDS011;4013;49.744;8.118;2024-01-16T07:32:54;12.37;;;7.33;;
7935;SDS011;4013;49.744;8.118;2024-01-16T07:35:21;12.70;;;7.53;;
7935;SDS011;4013;49.744;8.118;2024-01-16T07:37:48;11.60;;;7.40;;
7935;SDS011;4013;49.744;8.118;2024-01-16T07:40:15;10.87;;;6.63;;
7935;SDS011;4013;49.744;8.118;2024-01-16T07:42:43;20.10;;;10.50;;
7935;SDS011;4013;49.744;8.118;2024-01-16T07:45:09;14.90;;;7.63;;
7935;SDS011;4013;49.744;8.118;2024-01-16T07:47:36;12.13;;;7.60;;
7935;SDS011;4013;49.744;8.118;2024-01-16T07:50:05;9.93;;;7.00;;
7935;SDS011;4013;49.744;8.118;2024-01-16T07:52:33;16.77;;;7.97;;
7935;SDS011;4013;49.744;8.118;2024-01-16T07:54:59;9.83;;;4.47;;
7935;SDS011;4013;49.744;8.118;2024-01-16T07:57:27;9.30;;;4.07;;
7935;SDS011;4013;49.744;8.118;2024-01-16T07:59:54;6.97;;;4.67;;
7935;SDS011;4013;49.744;8.118;2024-01-16T08:02:22;8.93;;;5.13;;
7935;SDS011;4013;49.744;8.118;2024-01-16T08:04:48;10.70;;;5.07;;
7935;SDS011;4013;49.744;8.118;2024-01-16T08:07:17;9.80;;;5.10;;
7935;SDS011;4013;49.744;8.118;2024-01-16T08:09:44;10.20;;;5.57;;
7935;SDS011;4013;49.744;8.118;2024-01-16T08:12:11;8.67;;;5.17;;
7935;SDS011;4013;49.744;8.118;2024-01-16T08:14:38;8.53;;;4.47;;
7935;SDS011;4013;49.744;8.118;2024-01-16T08:17:05;9.33;;;5.00;;
7935;SDS011;4013;49.744;8.118;2024-01-16T08:19:32;9.63;;;4.47;;
7935;SDS011;4013;49.744;8.118;2024-01-16T08:21:59;11.83;;;4.73;;
7935;SDS011;4013;49.744;8.118;2024-01-16T08:24:28;9.17;;;4.90;;
7935;SDS011;4013;49.744;8.118;2024-01-16T08:26:55;7.97;;;4.80;;
7935;SDS011;4013;49.744;8.118;2024-01-16T08:29:23;8.97;;;4.83;;
7935;SDS011;4013;49.744;8.118;2024-01-16T08:31:50;8.60;;;4.40;;
7935;SDS011;4013;49.744;8.118;2024-01-16T08:34:18;6.77;;;4.33;;
7935;SDS011;4013;49.744;8.118;2024-01-16T08:36:45;9.10;;;4.77;;
7935;SDS011;4013;49.744;8.118;2024-01-16T08:39:12;7.87;;;4.50;;
7935;SDS011;4013;49.744;8.118;2024-01-16T08:41:42;7.50;;;4.87;;
7935;SDS011;4013;49.744;8.118;2024-01-16T08:44:10;8.73;;;4.97;;
7935;SDS011;4013;49.744;8.118;2024-01-16T08:46:37;8.60;;;4.77;;
7935;SDS011;4013;49.744;8.118;2024-01-16T08:49:04;10.50;;;5.03;;
7935;SDS011;4013;49.744;8.118;2024-01-16T08:51:31;7.27;;;4.77;;
7935;SDS011;4013;49.744;8.118;2024-01-16T08:53:58;7.37;;;4.27;;
7935;SDS011;4013;49.744;8.118;2024-01-16T08:56:25;6.80;;;4.47;;
7935;SDS011;4013;49.744;8.118;2024-01-16T08:58:53;6.73;;;4.00;;
7935;SDS011;4013;49.744;8.118;2024-01-16T09:01:20;7.93;;;5.50;;
7935;SDS011;4013;49.744;8.118;2024-01-16T09:03:47;8.47;;;4.87;;
7935;SDS011;4013;49.744;8.118;2024-01-16T09:06:13;9.00;;;4.53;;
7935;SDS011;4013;49.744;8.118;2024-01-16T09:08:41;8.70;;;4.50;;
7935;SDS011;4013;49.744;8.118;2024-01-16T09:11:09;8.63;;;3.93;;
7935;SDS011;4013;49.744;8.118;2024-01-16T09:13:37;9.57;;;4.47;;
7935;SDS011;4013;49.744;8.118;2024-01-16T09:16:05;8.53;;;4.80;;
7935;SDS011;4013;49.744;8.118;2024-01-16T09:18:32;11.20;;;6.30;;
7935;SDS011;4013;49.744;8.118;2024-01-16T09:20:59;13.40;;;5.00;;
7935;SDS011;4013;49.744;8.118;2024-01-16T09:23:26;7.50;;;4.63;;
7935;SDS011;4013;49.744;8.118;2024-01-16T09:25:53;7.37;;;4.73;;
7935;SDS011;4013;49.744;8.118;2024-01-16T09:28:20;8.33;;;5.30;;
7935;SDS011;4013;49.744;8.118;2024-01-16T09:30:47;8.47;;;5.53;;
7935;SDS011;4013;49.744;8.118;2024-01-16T09:33:16;7.43;;;5.43;;
7935;SDS011;4013;49.744;8.118;2024-01-16T09:35:42;8.20;;;4.80;;
7935;SDS011;4013;49.744;8.118;2024-01-16T09:38:09;8.63;;;4.77;;
7935;SDS011;4013;49.744;8.118;2024-01-16T09:40:36;8.57;;;5.43;;
7935;SDS011;4013;49.744;8.118;2024-01-16T09:43:03;11.33;;;5.57;;
7935;SDS011;4013;49.744;8.118;2024-01-16T09:45:33;11.17;;;5.63;;
7935;SDS011;4013;49.744;8.118;2024-01-16T09:48:03;11.27;;;6.03;;
7935;SDS011;4013;49.744;8.118;2024-01-16T09:50:34;10.93;;;5.33;;
7935;SDS011;4013;49.744;8.118;2024-01-16T09:53:01;9.67;;;5.33;;
7935;SDS011;4013;49.744;8.118;2024-01-16T09:55:29;11.53;;;6.13;;
7935;SDS011;4013;49.744;8.118;2024-01-16T09:57:55;11.83;;;5.40;;
7935;SDS011;4013;49.744;8.118;2024-01-16T10:00:24;12.27;;;5.57;;
7935;SDS011;4013;49.744;8.118;2024-01-16T10:02:52;9.80;;;4.73;;
7935;SDS011;4013;49.744;8.118;2024-01-16T10:05:23;10.53;;;5.13;;
7935;SDS011;4013;49.744;8.118;2024-01-16T10:07:52;9.73;;;5.17;;
7935;SDS011;4013;49.744;8.118;2024-01-16T10:10:20;8.87;;;4.97;;
7935;SDS011;4013;49.744;8.118;2024-01-16T10:12:47;10.63;;;5.97;;
7935;SDS011;4013;49.744;8.118;2024-01-16T10:15:16;10.90;;;6.00;;
7935;SDS011;4013;49.744;8.118;2024-01-16T10:17:48;14.10;;;6.17;;
7935;SDS011;4013;49.744;8.118;2024-01-16T10:20:14;9.97;;;6.20;;
7935;SDS011;4013;49.744;8.118;2024-01-16T10:22:53;10.33;;;5.80;;
7935;SDS011;4013;49.744;8.118;2024-01-16T10:25:21;12.20;;;6.20;;
7935;SDS011;4013;49.744;8.118;2024-01-16T10:27:48;7.77;;;5.33;;
7935;SDS011;4013;49.744;8.118;2024-01-16T10:30:16;9.43;;;4.17;;
7935;SDS011;4013;49.744;8.118;2024-01-16T10:32:48;11.03;;;5.63;;
7935;SDS011;4013;49.744;8.118;2024-01-16T10:35:15;7.00;;;3.87;;
7935;SDS011;4013;49.744;8.118;2024-01-16T10:37:44;7.47;;;3.60;;
7935;SDS011;4013;49.744;8.118;2024-01-16T10:40:26;8.33;;;3.43;;
7935;SDS011;4013;49.744;8.118;2024-01-16T10:42:58;6.17;;;3.00;;
7935;SDS011;4013;49.744;8.118;2024-01-16T10:45:28;8.30;;;4.10;;
7935;SDS011;4013;49.744;8.118;2024-01-16T10:48:04;9.73;;;3.80;;
7935;SDS011;4013;49.744;8.118;2024-01-16T10:50:32;5.50;;;3.40;;
7935;SDS011;4013;49.744;8.118;2024-01-16T10:53:00;5.30;;;3.13;;
7935;SDS011;4013;49.744;8.118;2024-01-16T10:55:33;6.33;;;2.73;;
7935;SDS011;4013;49.744;8.118;2024-01-16T10:58:09;6.93;;;2.67;;
7935;SDS011;4013;49.744;8.118;2024-01-16T11:00:39;6.33;;;3.30;;
7935;SDS011;4013;49.744;8.118;2024-01-16T11:03:11;8.73;;;3.70;;
7935;SDS011;4013;49.744;8.118;2024-01-16T11:05:42;6.07;;;3.40;;
7935;SDS011;4013;49.744;8.118;2024-01-16T11:08:10;8.23;;;3.17;;
7935;SDS011;4013;49.744;8.118;2024-01-16T11:10:43;5.10;;;3.00;;
7935;SDS011;4013;49.744;8.118;2024-01-16T11:13:10;5.97;;;3.23;;
7935;SDS011;4013;49.744;8.118;2024-01-16T11:15:39;8.63;;;3.00;;
7935;SDS011;4013;49.744;8.118;2024-01-16T11:18:08;5.67;;;2.93;;
7935;SDS011;4013;49.744;8.118;2024-01-16T11:20:37;10.07;;;3.47;;
7935;SDS011;4013;49.744;8.118;2024-01-16T11:23:08;9.70;;;3.20;;
7935;SDS011;4013;49.744;8.118;2024-01-16T11:25:34;6.63;;;2.90;;
7935;SDS011;4013;49.744;8.118;2024-01-16T11:28:18;5.77;;;2.77;;
7935;SDS011;4013;49.744;8.118;2024-01-16T11:30:46;5.50;;;2.60;;
7935;SDS011;4013;49.744;8.118;2024-01-16T11:39:10;5.80;;;2.73;;
7935;SDS011;4013;49.744;8.118;2024-01-16T11:41:50;9.40;;;3.30;;
7935;SDS011;4013;49.744;8.118;2024-01-16T11:44:39;6.87;;;2.90;;
7935;SDS011;4013;49.744;8.118;2024-01-16T11:47:08;9.97;;;3.20;;
7935;SDS011;4013;49.744;8.118;2024-01-16T11:49:40;7.47;;;2.83;;
7935;SDS011;4013;49.744;8.118;2024-01-16T11:52:07;8.50;;;3.03;;
7935;SDS011;4013;49.744;8.118;2024-01-16T11:54:36;5.43;;;2.50;;
7935;SDS011;4013;49.744;8.118;2024-01-16T11:57:25;2.93;;;2.40;;
7935;SDS011;4013;49.744;8.118;2024-01-16T12:00:02;5.40;;;2.50;;
7935;SDS011;4013;49.744;8.118;2024-01-16T12:05:22;4.33;;;2.60;;
7935;SDS011;4013;49.744;8.118;2024-01-16T12:07:50;6.30;;;2.73;;
7935;SDS011;4013;49.744;8.118;2024-01-16T12:10:19;6.60;;;3.23;;
7935;SDS011;4013;49.744;8.118;2024-01-16T12:12:48;14.73;;;3.07;;
7935;SDS011;4013;49.744;8.118;2024-01-16T12:15:18;11.67;;;6.60;;
7935;SDS011;4013;49.744;8.118;2024-01-16T12:17:55;10.87;;;5.43;;
7935;SDS011;4013;49.744;8.118;2024-01-16T12:20:23;23.93;;;4.80;;
7935;SDS011;4013;49.744;8.118;2024-01-16T12:22:54;8.47;;;4.50;;
7935;SDS011;4013;49.744;8.118;2024-01-16T12:25:22;16.80;;;8.67;;
7935;SDS011;4013;49.744;8.118;2024-01-16T12:27:57;18.67;;;4.73;;
7935;SDS011;4013;49.744;8.118;2024-01-16T12:30:26;10.43;;;4.23;;
7935;SDS011;4013;49.744;8.118;2024-01-16T12:33:05;6.90;;;3.83;;
7935;SDS011;4013;49.744;8.118;2024-01-16T12:35:33;6.53;;;3.53;;
7935;SDS011;4013;49.744;8.118;2024-01-16T12:38:01;7.40;;;4.43;;
7935;SDS011;4013;49.744;8.118;2024-01-16T12:40:31;4.73;;;3.60;;
7935;SDS011;4013;49.744;8.118;2024-01-16T12:42:59;8.03;;;3.23;;
7935;SDS011;4013;49.744;8.118;2024-01-16T12:45:28;7.10;;;3.60;;
7935;SDS011;4013;49.744;8.118;2024-01-16T12:47:56;9.83;;;3.93;;
7935;SDS011;4013;49.744;8.118;2024-01-16T12:50:26;9.40;;;3.40;;
7935;SDS011;4013;49.744;8.118;2024-01-16T12:53:03;6.93;;;3.50;;
7935;SDS011;4013;49.744;8.118;2024-01-16T12:55:31;5.20;;;3.17;;
7935;SDS011;4013;49.744;8.118;2024-01-16T12:58:14;7.97;;;5.20;;
7935;SDS011;4013;49.744;8.118;2024-01-16T13:00:43;7.93;;;3.30;;
7935;SDS011;4013;49.744;8.118;2024-01-16T13:03:17;8.10;;;3.30;;
7935;SDS011;4013;49.744;8.118;2024-01-16T13:05:44;7.60;;;3.10;;
7935;SDS011;4013;49.744;8.118;2024-01-16T13:08:19;8.37;;;3.77;;
7935;SDS011;4013;49.744;8.118;2024-01-16T13:10:47;4.07;;;3.60;;
7935;SDS011;4013;49.744;8.118;2024-01-16T13:13:28;5.07;;;3.33;;
7935;SDS011;4013;49.744;8.118;2024-01-16T13:15:57;7.73;;;3.23;;
7935;SDS011;4013;49.744;8.118;2024-01-16T13:18:25;9.67;;;3.03;;
7935;SDS011;4013;49.744;8.118;2024-01-16T13:20:54;6.13;;;3.30;;
7935;SDS011;4013;49.744;8.118;2024-01-16T13:23:22;7.60;;;2.83;;
7935;SDS011;4013;49.744;8.118;2024-01-16T13:25:50;6.77;;;3.40;;
7935;SDS011;4013;49.744;8.118;2024-01-16T13:28:19;5.53;;;2.97;;
7935;SDS011;4013;49.744;8.118;2024-01-16T13:30:47;5.90;;;3.07;;
7935;SDS011;4013;49.744;8.118;2024-01-16T13:33:17;6.57;;;3.17;;
7935;SDS011;4013;49.744;8.118;2024-01-16T13:35:46;5.23;;;3.30;;
7935;SDS011;4013;49.744;8.118;2024-01-16T13:38:13;5.67;;;3.17;;
7935;SDS011;4013;49.744;8.118;2024-01-16T13:40:41;7.00;;;3.60;;
7935;SDS011;4013;49.744;8.118;2024-01-16T13:43:09;6.50;;;3.47;;
7935;SDS011;4013;49.744;8.118;2024-01-16T13:45:37;7.10;;;3.27;;
7935;SDS011;4013;49.744;8.118;2024-01-16T13:48:04;6.47;;;3.83;;
7935;SDS011;4013;49.744;8.118;2024-01-16T13:50:33;8.70;;;3.50;;
7935;SDS011;4013;49.744;8.118;2024-01-16T13:53:00;8.40;;;3.80;;
7935;SDS011;4013;49.744;8.118;2024-01-16T13:55:28;6.87;;;3.80;;
7935;SDS011;4013;49.744;8.118;2024-01-16T13:57:55;5.13;;;3.37;;
7935;SDS011;4013;49.744;8.118;2024-01-16T14:00:23;6.40;;;3.63;;
7935;SDS011;4013;49.744;8.118;2024-01-16T14:02:50;8.40;;;3.90;;
7935;SDS011;4013;49.744;8.118;2024-01-16T14:05:18;6.77;;;3.23;;
7935;SDS011;4013;49.744;8.118;2024-01-16T14:07:48;7.57;;;3.23;;
7935;SDS011;4013;49.744;8.118;2024-01-16T14:10:17;6.00;;;3.30;;
7935;SDS011;4013;49.744;8.118;2024-01-16T14:12:45;5.03;;;2.90;;
7935;SDS011;4013;49.744;8.118;2024-01-16T14:15:13;4.37;;;2.30;;
7935;SDS011;4013;49.744;8.118;2024-01-16T14:17:44;5.43;;;2.90;;
7935;SDS011;4013;49.744;8.118;2024-01-16T14:20:12;5.53;;;2.50;;
7935;SDS011;4013;49.744;8.118;2024-01-16T14:22:39;6.67;;;2.37;;
7935;SDS011;4013;49.744;8.118;2024-01-16T14:25:09;5.83;;;2.80;;
7935;SDS011;4013;49.744;8.118;2024-01-16T14:27:38;5.37;;;2.60;;
7935;SDS011;4013;49.744;8.118;2024-01-16T14:30:07;6.80;;;2.90;;
7935;SDS011;4013;49.744;8.118;2024-01-16T14:32:36;5.63;;;2.80;;
7935;SDS011;4013;49.744;8.118;2024-01-16T14:35:04;4.70;;;2.90;;
7935;SDS011;4013;49.744;8.118;2024-01-16T14:37:31;5.47;;;2.70;;
7935;SDS011;4013;49.744;8.118;2024-01-16T14:39:58;5.77;;;2.90;;
7935;SDS011;4013;49.744;8.118;2024-01-16T14:42:28;6.00;;;3.30;;
7935;SDS011;4013;49.744;8.118;2024-01-16T14:44:57;6.00;;;3.20;;
7935;SDS011;4013;49.744;8.118;2024-01-16T14:47:24;6.63;;;3.23;;
7935;SDS011;4013;49.744;8.118;2024-01-16T14:49:51;7.07;;;3.13;;
7935;SDS011;4013;49.744;8.118;2024-01-16T14:52:20;5.63;;;2.77;;
7935;SDS011;4013;49.744;8.118;2024-01-16T14:54:47;7.67;;;2.80;;
7935;SDS011;4013;49.744;8.118;2024-01-16T14:57:15;6.67;;;2.90;;
7935;SDS011;4013;49.744;8.118;2024-01-16T14:59:43;7.23;;;3.37;;
7935;SDS011;4013;49.744;8.118;2024-01-16T15:02:10;6.67;;;3.10;;
7935;SDS011;4013;49.744;8.118;2024-01-16T15:04:38;6.30;;;3.00;;
7935;SDS011;4013;49.744;8.118;2024-01-16T15:07:05;9.63;;;3.80;;
7935;SDS011;4013;49.744;8.118;2024-01-16T15:09:32;6.40;;;3.20;;
7935;SDS011;4013;49.744;8.118;2024-01-16T15:12:00;6.80;;;3.27;;
7935;SDS011;4013;49.744;8.118;2024-01-16T15:14:28;7.67;;;3.13;;
7935;SDS011;4013;49.744;8.118;2024-01-16T15:16:56;6.33;;;3.13;;
7935;SDS011;4013;49.744;8.118;2024-01-16T15:19:23;7.57;;;3.23;;
7935;SDS011;4013;49.744;8.118;2024-01-16T15:21:50;4.40;;;2.80;;
7935;SDS011;4013;49.744;8.118;2024-01-16T15:24:17;5.30;;;3.00;;
7935;SDS011;4013;49.744;8.118;2024-01-16T15:26:51;6.97;;;3.40;;
7935;SDS011;4013;49.744;8.118;2024-01-16T15:29:19;4.70;;;3.37;;
7935;SDS011;4013;49.744;8.118;2024-01-16T15:31:46;5.03;;;3.87;;
7935;SDS011;4013;49.744;8.118;2024-01-16T15:34:14;5.93;;;3.30;;
7935;SDS011;4013;49.744;8.118;2024-01-16T15:36:41;5.10;;;3.40;;
7935;SDS011;4013;49.744;8.118;2024-01-16T15:39:08;7.37;;;4.37;;
7935;SDS011;4013;49.744;8.118;2024-01-16T15:41:36;5.33;;;3.50;;
7935;SDS011;4013;49.744;8.118;2024-01-16T15:44:03;7.30;;;3.87;;
7935;SDS011;4013;49.744;8.118;2024-01-16T15:46:31;6.20;;;3.70;;
7935;SDS011;4013;49.744;8.118;2024-01-16T15:48:58;7.70;;;3.37;;
7935;SDS011;4013;49.744;8.118;2024-01-16T15:51:27;5.93;;;3.57;;
7935;SDS011;4013;49.744;8.118;2024-01-16T15:53:55;6.87;;;3.47;;
7935;SDS011;4013;49.744;8.118;2024-01-16T15:56:22;5.10;;;3.43;;
7935;SDS011;4013;49.744;8.118;2024-01-16T15:58:49;6.77;;;4.10;;
7935;SDS011;4013;49.744;8.118;2024-01-16T16:01:16;5.53;;;3.80;;
7935;SDS011;4013;49.744;8.118;2024-01-16T16:03:43;6.13;;;4.13;;
7935;SDS011;4013;49.744;8.118;2024-01-16T16:06:10;5.90;;;3.83;;
7935;SDS011;4013;49.744;8.118;2024-01-16T16:08:39;5.37;;;3.60;;
7935;SDS011;4013;49.744;8.118;2024-01-16T16:11:06;6.33;;;3.63;;
7935;SDS011;4013;49.744;8.118;2024-01-16T16:13:33;6.97;;;3.90;;
7935;SDS011;4013;49.744;8.118;2024-01-16T16:15:59;8.73;;;3.90;;
7935;SDS011;4013;49.744;8.118;2024-01-16T16:18:27;7.33;;;4.30;;
7935;SDS011;4013;49.744;8.118;2024-01-16T16:20:54;7.53;;;4.90;;
7935;SDS011;4013;49.744;8.118;2024-01-16T16:23:21;10.97;;;4.90;;
7935;SDS011;4013;49.744;8.118;2024-01-16T16:25:49;8.80;;;4.93;;
7935;SDS011;4013;49.744;8.118;2024-01-16T16:28:16;9.60;;;4.57;;
7935;SDS011;4013;49.744;8.118;2024-01-16T16:30:43;8.03;;;4.60;;
7935;SDS011;4013;49.744;8.118;2024-01-16T16:33:10;14.60;;;5.70;;
7935;SDS011;4013;49.744;8.118;2024-01-16T16:35:37;9.77;;;5.23;;
7935;SDS011;4013;49.744;8.118;2024-01-16T16:38:04;10.80;;;5.73;;
7935;SDS011;4013;49.744;8.118;2024-01-16T16:40:31;10.20;;;5.87;;
7935;SDS011;4013;49.744;8.118;2024-01-16T16:42:59;13.10;;;6.27;;
7935;SDS011;4013;49.744;8.118;2024-01-16T16:45:27;10.00;;;6.10;;
7935;SDS011;4013;49.744;8.118;2024-01-16T16:47:54;11.47;;;5.43;;
7935;SDS011;4013;49.744;8.118;2024-01-16T16:50:21;11.43;;;6.17;;
7935;SDS011;4013;49.744;8.118;2024-01-16T16:52:48;8.77;;;5.30;;
7935;SDS011;4013;49.744;8.118;2024-01-16T16:55:15;9.70;;;5.47;;
7935;SDS011;4013;49.744;8.118;2024-01-16T16:57:42;9.93;;;5.67;;
7935;SDS011;4013;49.744;8.118;2024-01-16T17:00:11;14.53;;;6.63;;
7935;SDS011;4013;49.744;8.118;2024-01-16T17:02:39;16.17;;;6.50;;
7935;SDS011;4013;49.744;8.118;2024-01-16T17:05:06;16.47;;;6.47;;
7935;SDS011;4013;49.744;8.118;2024-01-16T17:07:34;15.10;;;6.70;;
7935;SDS011;4013;49.744;8.118;2024-01-16T17:10:01;16.53;;;7.50;;
7935;SDS011;4013;49.744;8.118;2024-01-16T17:12:29;15.47;;;6.83;;
7935;SDS011;4013;49.744;8.118;2024-01-16T17:14:57;10.43;;;6.17;;
7935;SDS011;4013;49.744;8.118;2024-01-16T17:17:25;10.90;;;6.00;;
7935;SDS011;4013;49.744;8.118;2024-01-16T17:19:54;13.47;;;6.63;;
7935;SDS011;4013;49.744;8.118;2024-01-16T17:22:21;14.37;;;6.83;;
7935;SDS011;4013;49.744;8.118;2024-01-16T17:24:48;10.97;;;6.37;;
7935;SDS011;4013;49.744;8.118;2024-01-16T17:27:15;10.63;;;5.97;;
7935;SDS011;4013;49.744;8.118;2024-01-16T17:29:43;8.17;;;5.93;;
7935;SDS011;4013;49.744;8.118;2024-01-16T17:32:10;12.53;;;5.93;;
7935;SDS011;4013;49.744;8.118;2024-01-16T17:34:39;10.73;;;5.67;;
7935;SDS011;4013;49.744;8.118;2024-01-16T17:37:06;12.57;;;6.30;;
7935;SDS011;4013;49.744;8.118;2024-01-16T17:39:33;11.63;;;6.20;;
7935;SDS011;4013;49.744;8.118;2024-01-16T17:42:00;9.53;;;6.43;;
7935;SDS011;4013;49.744;8.118;2024-01-16T17:44:28;10.83;;;5.97;;
7935;SDS011;4013;49.744;8.118;2024-01-16T17:46:55;13.93;;;6.73;;
7935;SDS011;4013;49.744;8.118;2024-01-16T17:49:22;13.60;;;6.93;;
7935;SDS011;4013;49.744;8.118;2024-01-16T17:51:51;12.70;;;6.70;;
7935;SDS011;4013;49.744;8.118;2024-01-16T17:54:19;16.30;;;9.00;;
7935;SDS011;4013;49.744;8.118;2024-01-16T17:56:46;13.23;;;7.57;;
7935;SDS011;4013;49.744;8.118;2024-01-16T17:59:13;13.73;;;7.10;;
7935;SDS011;4013;49.744;8.118;2024-01-16T18:01:41;16.73;;;7.87;;
7935;SDS011;4013;49.744;8.118;2024-01-16T18:04:08;16.67;;;8.60;;
7935;SDS011;4013;49.744;8.118;2024-01-16T18:06:36;15.83;;;7.80;;
7935;SDS011;4013;49.744;8.118;2024-01-16T18:09:04;15.80;;;8.07;;
7935;SDS011;4013;49.744;8.118;2024-01-16T18:14:20;14.13;;;8.67;;
7935;SDS011;4013;49.744;8.118;2024-01-16T18:16:46;16.07;;;7.80;;
7935;SDS011;4013;49.744;8.118;2024-01-16T18:19:15;14.97;;;7.90;;
7935;SDS011;4013;49.744;8.118;2024-01-16T18:21:44;13.10;;;7.40;;
7935;SDS011;4013;49.744;8.118;2024-01-16T18:24:13;14.57;;;8.60;;
7935;SDS011;4013;49.744;8.118;2024-01-16T18:26:41;16.33;;;7.93;;
7935;SDS011;4013;49.744;8.118;2024-01-16T18:29:09;17.47;;;8.60;;
7935;SDS011;4013;49.744;8.118;2024-01-16T18:31:36;15.20;;;9.00;;
7935;SDS011;4013;49.744;8.118;2024-01-16T18:34:03;18.07;;;8.90;;
7935;SDS011;4013;49.744;8.118;2024-01-16T18:36:33;18.27;;;9.33;;
7935;SDS011;4013;49.744;8.118;2024-01-16T18:39:03;19.63;;;10.03;;
7935;SDS011;4013;49.744;8.118;2024-01-16T18:41:38;16.77;;;9.23;;
7935;SDS011;4013;49.744;8.118;2024-01-16T18:44:10;18.47;;;9.20;;
7935;SDS011;4013;49.744;8.118;2024-01-16T18:46:37;16.23;;;8.67;;
7935;SDS011;4013;49.744;8.118;2024-01-16T18:49:04;15.83;;;8.87;;
7935;SDS011;4013;49.744;8.118;2024-01-16T18:51:31;10.93;;;7.47;;
7935;SDS011;4013;49.744;8.118;2024-01-16T18:54:02;15.67;;;6.90;;
7935;SDS011;4013;49.744;8.118;2024-01-16T18:56:29;15.80;;;7.67;;
7935;SDS011;4013;49.744;8.118;2024-01-16T18:58:57;15.07;;;8.57;;
7935;SDS011;4013;49.744;8.118;2024-01-16T19:01:25;14.57;;;7.53;;
7935;SDS011;4013;49.744;8.118;2024-01-16T19:03:54;9.73;;;6.10;;
7935;SDS011;4013;49.744;8.118;2024-01-16T19:06:21;11.47;;;5.90;;
7935;SDS011;4013;49.744;8.118;2024-01-16T19:08:48;13.67;;;6.20;;
7935;SDS011;4013;49.744;8.118;2024-01-16T19:11:16;12.57;;;6.50;;
7935;SDS011;4013;49.744;8.118;2024-01-16T19:13:42;16.83;;;6.60;;
7935;SDS011;4013;49.744;8.118;2024-01-16T19:16:11;11.03;;;5.87;;
7935;SDS011;4013;49.744;8.118;2024-01-16T19:18:38;12.73;;;7.33;;
7935;SDS011;4013;49.744;8.118;2024-01-16T19:21:06;14.53;;;6.43;;
7935;SDS011;4013;49.744;8.118;2024-01-16T19:23:35;17.17;;;6.63;;
7935;SDS011;4013;49.744;8.118;2024-01-16T19:26:03;12.40;;;7.87;;
7935;SDS011;4013;49.744;8.118;2024-01-16T19:28:30;14.93;;;9.37;;
7935;SDS011;4013;49.744;8.118;2024-01-16T19:30:58;14.80;;;8.43;;
7935;SDS011;4013;49.744;8.118;2024-01-16T19:33:28;16.33;;;8.90;;
7935;SDS011;4013;49.744;8.118;2024-01-16T19:35:55;17.37;;;9.33;;
7935;SDS011;4013;49.744;8.118;2024-01-16T19:38:24;19.27;;;9.67;;
7935;SDS011;4013;49.744;8.118;2024-01-16T19:40:51;20.83;;;9.67;;
7935;SDS011;4013;49.744;8.118;2024-01-16T19:43:18;21.63;;;10.77;;
7935;SDS011;4013;49.744;8.118;2024-01-16T19:45:46;16.40;;;9.43;;
7935;SDS011;4013;49.744;8.118;2024-01-16T19:48:14;18.33;;;10.10;;
7935;SDS011;4013;49.744;8.118;2024-01-16T19:50:45;15.23;;;9.53;;
7935;SDS011;4013;49.744;8.118;2024-01-16T19:53:12;22.63;;;10.47;;
7935;SDS011;4013;49.744;8.118;2024-01-16T19:55:41;16.80;;;9.60;;
7935;SDS011;4013;49.744;8.118;2024-01-16T19:58:08;15.60;;;8.90;;
7935;SDS011;4013;49.744;8.118;2024-01-16T20:00:36;18.67;;;10.67;;
7935;SDS011;4013;49.744;8.118;2024-01-16T20:03:04;16.17;;;9.73;;
7935;SDS011;4013;49.744;8.118;2024-01-16T20:05:32;22.37;;;11.57;;
7935;SDS011;4013;49.744;8.118;2024-01-16T20:08:04;21.57;;;11.30;;
7935;SDS011;4013;49.744;8.118;2024-01-16T20:10:32;24.50;;;11.93;;
7935;SDS011;4013;49.744;8.118;2024-01-16T20:12:59;19.67;;;9.80;;
7935;SDS011;4013;49.744;8.118;2024-01-16T20:15:29;17.40;;;10.17;;
7935;SDS011;4013;49.744;8.118;2024-01-16T20:17:58;17.47;;;8.97;;
7935;SDS011;4013;49.744;8.118;2024-01-16T20:20:27;16.40;;;8.97;;
7935;SDS011;4013;49.744;8.118;2024-01-16T20:22:55;12.43;;;7.67;;
7935;SDS011;4013;49.744;8.118;2024-01-16T20:25:24;16.17;;;8.57;;
7935;SDS011;4013;49.744;8.118;2024-01-16T20:27:54;17.50;;;8.70;;
7935;SDS011;4013;49.744;8.118;2024-01-16T20:30:21;19.03;;;9.10;;
7935;SDS011;4013;49.744;8.118;2024-01-16T20:32:48;16.37;;;9.10;;
7935;SDS011;4013;49.744;8.118;2024-01-16T20:35:15;17.90;;;8.60;;
7935;SDS011;4013;49.744;8.118;2024-01-16T20:37:42;17.27;;;8.60;;
7935;SDS011;4013;49.744;8.118;2024-01-16T20:40:10;14.77;;;8.87;;
7935;SDS011;4013;49.744;8.118;2024-01-16T20:42:39;14.33;;;8.53;;
7935;SDS011;4013;49.744;8.118;2024-01-16T20:45:06;16.40;;;8.97;;
7935;SDS011;4013;49.744;8.118;2024-01-16T20:47:35;16.63;;;8.97;;
7935;SDS011;4013;49.744;8.118;2024-01-16T20:50:03;21.93;;;8.80;;
7935;SDS011;4013;49.744;8.118;2024-01-16T20:52:31;17.53;;;9.93;;
7935;SDS011;4013;49.744;8.118;2024-01-16T20:54:59;16.47;;;10.03;;
7935;SDS011;4013;49.744;8.118;2024-01-16T20:57:28;21.13;;;10.57;;
7935;SDS011;4013;49.744;8.118;2024-01-16T20:59:56;24.57;;;12.33;;